Time;durP1;ratioP1;P1;durP2;ratioP2;P2;SDS_P1;SDS_P2;PMS_P1;PMS_P2;Temp;Humidity;BMP_temperature;BMP_pressure;BME280_temperature;BME280_humidity;BME280_pressure;Samples;Min_cycle;Max_cycle;Signal;HPM_P1;HPM_P2
2023/08/22 00:01:09;;;;;;;21.33;11.50;;;;;;;;;;4879246;29;20033;-79
2023/08/22 00:03:43;;;;;;;23.67;12.05;;;;;;;;;;4879291;29;20531;-81
2023/08/22 00:06:16;;;;;;;24.08;11.95;;;;;;;;;;4877691;29;20049;-80
2023/08/22 00:08:49;;;;;;;24.45;12.98;;;;;;;;;;4874479;29;20049;-80
2023/08/22 00:11:19;;;;;;;30.77;13.95;;;;;;;;;;4879331;29;20033;-79
2023/08/22 00:13:50;;;;;;;25.25;12.63;;;;;;;;;;4879209;29;20049;-80
2023/08/22 00:16:24;;;;;;;24.48;14.35;;;;;;;;;;4877691;29;20044;-81
2023/08/22 00:18:55;;;;;;;33.15;16.85;;;;;;;;;;4876948;29;20053;-79
2023/08/22 00:21:25;;;;;;;31.50;15.38;;;;;;;;;;4878939;29;20049;-82
2023/08/22 00:23:59;;;;;;;28.52;13.48;;;;;;;;;;4879210;29;20044;-80
2023/08/22 00:26:34;;;;;;;26.35;13.82;;;;;;;;;;4879191;29;20045;-81
2023/08/22 00:29:04;;;;;;;30.10;14.93;;;;;;;;;;4877118;29;20552;-82
2023/08/22 00:31:34;;;;;;;25.90;12.90;;;;;;;;;;4863975;29;20053;-79
2023/08/22 00:34:07;;;;;;;27.05;11.82;;;;;;;;;;4878161;29;20053;-80
2023/08/22 00:36:40;;;;;;;20.70;11.23;;;;;;;;;;4880725;29;20048;-78
2023/08/22 00:39:14;;;;;;;20.17;10.77;;;;;;;;;;4871767;29;20253;-79
2023/08/22 00:41:46;;;;;;;15.95;9.20;;;;;;;;;;4885301;29;20049;-80
2023/08/22 00:44:21;;;;;;;17.05;9.35;;;;;;;;;;4875979;29;20500;-79
2023/08/22 00:46:52;;;;;;;17.95;9.13;;;;;;;;;;4883949;29;20053;-79
2023/08/22 00:49:26;;;;;;;19.63;9.50;;;;;;;;;;4887933;29;20054;-77
2023/08/22 00:51:59;;;;;;;;;;;;;;;;;;4886045;29;20045;-77
2023/08/22 00:54:34;;;;;;;19.77;9.70;;;;;;;;;;4877054;29;19946;-80
2023/08/22 00:57:08;;;;;;;18.02;9.93;;;;;;;;;;4867855;29;20053;-78
2023/08/22 00:59:40;;;;;;;21.85;10.10;;;;;;;;;;4868757;29;21061;-78
2023/08/22 01:02:10;;;;;;;19.85;10.13;;;;;;;;;;4876033;29;20040;-81
2023/08/22 01:04:44;;;;;;;21.48;10.82;;;;;;;;;;4876342;29;20048;-79
2023/08/22 01:07:20;;;;;;;18.35;9.57;;;;;;;;;;4871292;29;20066;-80
2023/08/22 01:10:07;;;;;;;20.35;9.70;;;;;;;;;;4878062;29;20064;-79
2023/08/22 01:13:03;;;;;;;21.38;10.90;;;;;;;;;;4862198;29;20049;-78
2023/08/22 01:15:38;;;;;;;22.35;10.52;;;;;;;;;;4859876;29;20045;-81
2023/08/22 01:18:11;;;;;;;21.08;12.05;;;;;;;;;;4878343;29;20067;-81
2023/08/22 01:20:42;;;;;;;20.55;10.23;;;;;;;;;;4876540;29;20060;-79
2023/08/22 01:23:12;;;;;;;16.73;9.02;;;;;;;;;;4876347;29;20049;-79
2023/08/22 01:25:44;;;;;;;18.23;8.05;;;;;;;;;;4860978;29;20053;-79
2023/08/22 01:29:03;;;;;;;17.00;8.73;;;;;;;;;;4877197;29;20052;-81
2023/08/22 01:32:10;;;;;;;18.50;9.30;;;;;;;;;;4863167;29;20053;-81
2023/08/22 01:34:42;;;;;;;17.38;9.45;;;;;;;;;;4881785;29;20045;-80
2023/08/22 01:37:16;;;;;;;16.90;8.68;;;;;;;;;;4881016;29;20500;-80
2023/08/22 01:39:48;;;;;;;18.60;8.10;;;;;;;;;;4880358;29;20055;-80
2023/08/22 01:42:21;;;;;;;18.05;7.85;;;;;;;;;;4864104;29;20440;-79
2023/08/22 01:44:52;;;;;;;17.25;8.15;;;;;;;;;;4865086;29;20053;-78
2023/08/22 01:47:23;;;;;;;19.23;9.82;;;;;;;;;;4879370;29;20052;-79
2023/08/22 01:49:55;;;;;;;14.90;7.55;;;;;;;;;;4882855;29;20053;-78
2023/08/22 01:52:26;;;;;;;16.50;8.20;;;;;;;;;;4880140;29;20056;-79
2023/08/22 01:55:03;;;;;;;14.60;7.75;;;;;;;;;;4881406;29;20048;-80
2023/08/22 01:57:35;;;;;;;18.27;7.70;;;;;;;;;;4881247;29;20053;-78
2023/08/22 02:00:09;;;;;;;15.30;7.65;;;;;;;;;;4867185;29;20064;-82
2023/08/22 02:02:41;;;;;;;17.70;7.57;;;;;;;;;;4867684;29;20049;-79
2023/08/22 02:05:13;;;;;;;20.00;7.70;;;;;;;;;;4879702;29;20045;-79
2023/08/22 02:07:45;;;;;;;15.27;7.32;;;;;;;;;;4881181;29;20064;-79
2023/08/22 02:10:16;;;;;;;13.70;7.00;;;;;;;;;;4885405;29;20422;-82
2023/08/22 02:12:46;;;;;;;17.42;8.70;;;;;;;;;;4879371;29;20064;-82
2023/08/22 02:15:19;;;;;;;14.75;7.35;;;;;;;;;;4875476;29;20088;-80
2023/08/22 02:17:51;;;;;;;14.75;7.15;;;;;;;;;;4880488;29;20048;-79
2023/08/22 02:20:23;;;;;;;14.48;7.25;;;;;;;;;;4865387;29;20049;-83
2023/08/22 02:22:58;;;;;;;13.32;7.05;;;;;;;;;;4879509;29;20052;-81
2023/08/22 02:25:32;;;;;;;15.35;6.70;;;;;;;;;;4877385;29;20045;-80
2023/08/22 02:28:04;;;;;;;13.98;6.68;;;;;;;;;;4881206;29;20507;-82
2023/08/22 02:30:36;;;;;;;14.05;6.38;;;;;;;;;;4879196;29;20053;-79
2023/08/22 02:33:06;;;;;;;13.48;6.32;;;;;;;;;;4878538;29;20061;-79
2023/08/22 02:35:39;;;;;;;12.88;6.60;;;;;;;;;;4879397;29;20045;-78
2023/08/22 02:38:10;;;;;;;11.77;6.45;;;;;;;;;;4880399;29;20053;-80
2023/08/22 02:40:42;;;;;;;11.45;6.20;;;;;;;;;;4880174;29;20124;-80
2023/08/22 02:43:16;;;;;;;16.63;7.38;;;;;;;;;;4884540;29;20056;-82
2023/08/22 02:45:47;;;;;;;12.68;6.50;;;;;;;;;;4864419;29;20057;-82
2023/08/22 02:48:20;;;;;;;14.55;7.03;;;;;;;;;;4879441;29;20161;-81
2023/08/22 02:50:52;;;;;;;12.93;7.38;;;;;;;;;;4881057;29;20053;-79
2023/08/22 02:53:25;;;;;;;12.18;6.28;;;;;;;;;;4864087;29;20057;-81
2023/08/22 02:56:00;;;;;;;12.70;6.07;;;;;;;;;;4872512;29;20053;-80
2023/08/22 02:58:31;;;;;;;12.35;6.63;;;;;;;;;;4879155;29;20060;-79
2023/08/22 03:01:04;;;;;;;13.50;6.88;;;;;;;;;;4879790;29;20049;-79
2023/08/22 03:03:36;;;;;;;14.77;6.85;;;;;;;;;;4880070;29;20060;-80
2023/08/22 03:06:08;;;;;;;16.92;6.85;;;;;;;;;;4881405;29;20052;-79
2023/08/22 03:08:40;;;;;;;16.35;6.72;;;;;;;;;;4878953;29;20060;-80
2023/08/22 03:11:13;;;;;;;16.05;7.13;;;;;;;;;;4867116;29;20050;-81
2023/08/22 03:13:44;;;;;;;14.43;7.35;;;;;;;;;;4875756;29;20062;-79
2023/08/22 03:16:15;;;;;;;14.57;7.40;;;;;;;;;;4874594;29;20069;-79
2023/08/22 03:18:48;;;;;;;14.23;6.68;;;;;;;;;;4875146;29;20080;-81
2023/08/22 03:21:18;;;;;;;11.95;6.53;;;;;;;;;;4874815;29;20409;-79
2023/08/22 03:23:54;;;;;;;18.63;8.10;;;;;;;;;;4876604;29;20056;-79
2023/08/22 03:26:27;;;;;;;16.67;7.93;;;;;;;;;;4878620;29;20060;-81
2023/08/22 03:29:02;;;;;;;14.35;7.30;;;;;;;;;;4880374;29;20053;-79
2023/08/22 03:31:33;;;;;;;14.80;7.13;;;;;;;;;;4880118;29;20515;-80
2023/08/22 03:34:04;;;;;;;18.42;7.78;;;;;;;;;;4878815;29;20060;-80
2023/08/22 03:36:36;;;;;;;13.50;7.20;;;;;;;;;;4879966;29;20060;-80
2023/08/22 03:39:09;;;;;;;17.45;8.18;;;;;;;;;;4879094;29;20045;-81
2023/08/22 03:41:42;;;;;;;14.10;7.00;;;;;;;;;;4879818;29;20053;-81
2023/08/22 03:44:14;;;;;;;15.70;7.07;;;;;;;;;;4879348;29;20441;-79
2023/08/22 03:46:47;;;;;;;20.38;7.45;;;;;;;;;;4879448;29;20496;-78
2023/08/22 03:49:38;;;;;;;17.25;7.60;;;;;;;;;;4880036;29;20076;-80
2023/08/22 03:52:10;;;;;;;13.75;6.63;;;;;;;;;;4878222;29;20064;-81
2023/08/22 03:54:40;;;;;;;16.23;7.30;;;;;;;;;;4879379;29;20079;-80
2023/08/22 03:57:12;;;;;;;13.40;7.00;;;;;;;;;;4879303;29;20072;-81
2023/08/22 03:59:48;;;;;;;14.32;6.50;;;;;;;;;;4879660;29;20053;-80
2023/08/22 04:02:20;;;;;;;14.27;6.85;;;;;;;;;;4881035;29;20053;-80
2023/08/22 04:04:50;;;;;;;19.50;7.03;;;;;;;;;;4881246;29;20075;-81
2023/08/22 04:07:21;;;;;;;14.00;6.35;;;;;;;;;;4880112;29;20068;-79
2023/08/22 04:09:54;;;;;;;13.75;6.70;;;;;;;;;;4880907;29;20060;-80
2023/08/22 04:12:25;;;;;;;14.55;6.57;;;;;;;;;;4881746;29;20049;-79
2023/08/22 04:14:55;;;;;;;14.35;6.22;;;;;;;;;;4881061;29;20057;-80
2023/08/22 04:17:26;;;;;;;14.32;6.68;;;;;;;;;;4880703;29;20413;-81
2023/08/22 04:20:01;;;;;;;13.98;6.75;;;;;;;;;;4879353;29;20408;-80
2023/08/22 04:22:34;;;;;;;13.18;5.70;;;;;;;;;;4880243;29;20068;-80
2023/08/22 04:25:07;;;;;;;14.73;6.25;;;;;;;;;;4880838;29;20060;-80
2023/08/22 04:27:40;;;;;;;11.43;5.53;;;;;;;;;;4879187;29;20441;-78
2023/08/22 04:30:16;;;;;;;14.73;6.13;;;;;;;;;;4880437;29;20056;-81
2023/08/22 04:32:48;;;;;;;13.15;5.70;;;;;;;;;;4878592;29;20061;-78
2023/08/22 04:35:18;;;;;;;13.05;6.40;;;;;;;;;;4879028;29;20053;-81
2023/08/22 04:37:53;;;;;;;13.88;6.32;;;;;;;;;;4878104;29;20052;-79
2023/08/22 04:40:26;;;;;;;10.93;5.70;;;;;;;;;;4878770;29;20058;-79
2023/08/22 04:43:05;;;;;;;14.10;7.00;;;;;;;;;;4879242;29;20056;-80
2023/08/22 04:45:37;;;;;;;13.48;5.57;;;;;;;;;;4878915;29;20064;-79
2023/08/22 04:48:10;;;;;;;12.50;6.30;;;;;;;;;;4878859;29;20057;-81
2023/08/22 04:50:42;;;;;;;;;;;;;;;;;;4879425;29;20080;-78
2023/08/22 04:53:13;;;;;;;12.25;5.82;;;;;;;;;;4879099;29;20379;-79
2023/08/22 04:55:45;;;;;;;12.38;5.97;;;;;;;;;;4878782;29;20060;-80
2023/08/22 04:58:19;;;;;;;13.75;5.50;;;;;;;;;;4879759;29;20504;-80
2023/08/22 05:00:55;;;;;;;12.88;6.22;;;;;;;;;;4878860;29;20057;-78
2023/08/22 05:03:26;;;;;;;15.32;6.05;;;;;;;;;;4878054;29;20057;-81
2023/08/22 05:05:58;;;;;;;13.38;5.93;;;;;;;;;;4879348;29;20053;-79
2023/08/22 05:08:31;;;;;;;16.08;6.78;;;;;;;;;;4881463;29;20044;-81
2023/08/22 05:11:08;;;;;;;14.45;6.82;;;;;;;;;;4880121;29;20508;-77
2023/08/22 05:13:39;;;;;;;12.05;5.95;;;;;;;;;;4879417;29;20057;-77
2023/08/22 05:16:09;;;;;;;12.63;5.85;;;;;;;;;;4880186;29;20519;-77
2023/08/22 05:18:42;;;;;;;11.95;5.82;;;;;;;;;;4882010;29;20057;-78
2023/08/22 05:21:18;;;;;;;12.43;6.47;;;;;;;;;;4882000;29;20056;-77
2023/08/22 05:23:51;;;;;;;12.43;6.20;;;;;;;;;;4883374;29;20428;-78
2023/08/22 05:26:23;;;;;;;11.25;5.65;;;;;;;;;;4879289;29;20057;-79
2023/08/22 05:28:56;;;;;;;11.98;5.60;;;;;;;;;;4880155;29;20053;-78
2023/08/22 05:31:29;;;;;;;11.68;6.13;;;;;;;;;;4878659;29;20049;-80
2023/08/22 05:34:02;;;;;;;14.63;6.20;;;;;;;;;;4879070;29;20065;-79
2023/08/22 05:36:32;;;;;;;14.80;6.13;;;;;;;;;;4878269;29;20060;-79
2023/08/22 05:39:10;;;;;;;13.10;5.80;;;;;;;;;;4877660;29;20057;-80
2023/08/22 05:41:45;;;;;;;15.93;6.00;;;;;;;;;;4878311;29;20342;-80
2023/08/22 05:44:17;;;;;;;14.02;6.07;;;;;;;;;;4877800;29;20049;-81
2023/08/22 05:46:50;;;;;;;14.98;6.15;;;;;;;;;;4878539;29;20060;-79
2023/08/22 05:49:26;;;;;;;16.10;6.88;;;;;;;;;;4878533;29;20061;-81
2023/08/22 05:52:04;;;;;;;13.05;6.22;;;;;;;;;;4878212;29;20053;-81
2023/08/22 05:54:38;;;;;;;13.30;6.22;;;;;;;;;;4879154;29;20355;-81
2023/08/22 05:57:10;;;;;;;12.43;5.82;;;;;;;;;;4878402;29;20064;-81
2023/08/22 05:59:44;;;;;;;;;;;;;;;;;;4878225;29;20159;-80
2023/08/22 06:02:16;;;;;;;10.85;5.15;;;;;;;;;;4878154;29;19924;-80
2023/08/22 06:04:49;;;;;;;11.48;5.82;;;;;;;;;;4877602;29;20420;-81
2023/08/22 06:07:23;;;;;;;11.27;5.72;;;;;;;;;;4877698;29;20064;-80
2023/08/22 06:10:00;;;;;;;13.27;5.45;;;;;;;;;;4879362;29;20472;-79
2023/08/22 06:12:34;;;;;;;12.07;5.80;;;;;;;;;;4877711;29;20405;-78
2023/08/22 06:15:05;;;;;;;12.98;5.95;;;;;;;;;;4879776;29;20049;-79
2023/08/22 06:17:37;;;;;;;18.05;6.35;;;;;;;;;;4884965;29;20049;-80
2023/08/22 06:20:10;;;;;;;12.65;5.78;;;;;;;;;;4889775;29;20064;-79
2023/08/22 06:22:46;;;;;;;12.48;5.63;;;;;;;;;;4885823;29;20071;-80
2023/08/22 06:25:17;;;;;;;;;;;;;;;;;;4899670;29;20049;-76
2023/08/22 06:27:48;;;;;;;;;;;;;;;;;;4900828;29;20397;-76
2023/08/22 06:30:23;;;;;;;13.93;5.95;;;;;;;;;;4898231;29;19924;-77
2023/08/22 06:32:56;;;;;;;14.25;6.13;;;;;;;;;;4884656;29;20056;-81
2023/08/22 06:35:28;;;;;;;11.80;5.95;;;;;;;;;;4885934;29;20045;-76
2023/08/22 06:38:00;;;;;;;12.40;5.70;;;;;;;;;;4898462;29;20048;-78
2023/08/22 06:40:36;;;;;;;13.02;5.82;;;;;;;;;;4884197;29;20065;-79
2023/08/22 06:43:09;;;;;;;10.43;5.32;;;;;;;;;;4880327;29;20049;-80
2023/08/22 06:45:45;;;;;;;15.60;5.35;;;;;;;;;;4880496;29;20413;-80
2023/08/22 06:48:16;;;;;;;12.38;5.82;;;;;;;;;;4881636;29;20065;-79
2023/08/22 06:51:09;;;;;;;10.68;5.65;;;;;;;;;;4879981;29;20057;-79
2023/08/22 06:53:40;;;;;;;11.80;5.63;;;;;;;;;;4882183;29;20045;-79
2023/08/22 06:56:13;;;;;;;15.38;5.43;;;;;;;;;;4880592;29;20512;-81
2023/08/22 06:58:45;;;;;;;12.45;5.90;;;;;;;;;;4881492;29;20051;-79
2023/08/22 07:01:18;;;;;;;10.52;5.57;;;;;;;;;;4881263;29;20119;-79
2023/08/22 07:03:51;;;;;;;13.82;5.80;;;;;;;;;;4880631;29;20366;-79
2023/08/22 07:06:39;;;;;;;11.45;5.57;;;;;;;;;;4881416;29;20049;-79
2023/08/22 07:09:09;;;;;;;10.70;5.25;;;;;;;;;;4880914;29;20045;-80
2023/08/22 07:11:43;;;;;;;13.13;5.35;;;;;;;;;;4880840;29;20052;-79
2023/08/22 07:14:17;;;;;;;14.85;5.57;;;;;;;;;;4881361;29;20049;-79
2023/08/22 07:16:49;;;;;;;12.88;5.85;;;;;;;;;;4881219;29;20049;-78
2023/08/22 07:19:21;;;;;;;12.63;5.53;;;;;;;;;;4881161;29;20500;-79
2023/08/22 07:22:09;;;;;;;16.60;5.47;;;;;;;;;;4880716;29;20072;-79
2023/08/22 07:24:40;;;;;;;12.45;5.20;;;;;;;;;;4881432;29;20060;-80
2023/08/22 07:27:11;;;;;;;11.95;5.35;;;;;;;;;;4879515;29;20551;-79
2023/08/22 07:29:43;;;;;;;10.95;5.43;;;;;;;;;;4880942;29;20045;-80
2023/08/22 07:32:14;;;;;;;14.45;5.63;;;;;;;;;;4881604;29;20053;-79
2023/08/22 07:34:48;;;;;;;13.60;5.25;;;;;;;;;;4881103;29;20057;-79
2023/08/22 07:37:20;;;;;;;11.57;4.85;;;;;;;;;;4880675;29;20121;-79
2023/08/22 07:39:50;;;;;;;13.18;5.28;;;;;;;;;;4880859;29;20049;-80
2023/08/22 07:42:22;;;;;;;12.77;5.55;;;;;;;;;;4880297;29;20053;-79
2023/08/22 07:44:54;;;;;;;12.80;5.78;;;;;;;;;;4879023;29;20060;-81
2023/08/22 07:47:24;;;;;;;11.23;5.18;;;;;;;;;;4880682;29;20052;-78
2023/08/22 07:49:55;;;;;;;15.07;5.45;;;;;;;;;;4880847;29;20049;-80
2023/08/22 07:52:28;;;;;;;12.57;5.30;;;;;;;;;;4881267;29;20056;-78
2023/08/22 07:54:59;;;;;;;16.35;5.70;;;;;;;;;;4881191;29;20078;-79
2023/08/22 07:57:29;;;;;;;8.98;4.85;;;;;;;;;;4881068;29;20073;-78
2023/08/22 08:00:01;;;;;;;16.40;5.10;;;;;;;;;;4881055;29;20057;-78
2023/08/22 08:02:40;;;;;;;11.10;5.47;;;;;;;;;;4883200;29;20065;-78
2023/08/22 08:05:16;;;;;;;12.55;5.22;;;;;;;;;;4880933;29;20505;-79
2023/08/22 08:07:46;;;;;;;11.68;5.32;;;;;;;;;;4881200;29;20037;-80
2023/08/22 08:10:16;;;;;;;14.30;6.07;;;;;;;;;;4879584;29;20413;-77
2023/08/22 08:12:48;;;;;;;12.65;5.28;;;;;;;;;;4880355;29;20052;-78
2023/08/22 08:15:19;;;;;;;16.10;6.15;;;;;;;;;;4880197;29;20045;-81
2023/08/22 08:17:49;;;;;;;11.77;5.20;;;;;;;;;;4873815;29;20053;-78
2023/08/22 08:20:22;;;;;;;12.05;5.55;;;;;;;;;;4861836;29;20057;-80
2023/08/22 08:22:56;;;;;;;14.50;5.47;;;;;;;;;;4861168;29;20076;-78
2023/08/22 08:25:28;;;;;;;12.82;5.60;;;;;;;;;;4862098;29;20046;-79
2023/08/22 08:27:58;;;;;;;11.90;5.18;;;;;;;;;;4861882;29;20060;-81
2023/08/22 08:30:29;;;;;;;15.50;5.53;;;;;;;;;;4861464;29;20444;-78
2023/08/22 08:33:06;;;;;;;10.45;5.50;;;;;;;;;;4861485;29;20049;-79
2023/08/22 08:35:37;;;;;;;9.80;4.90;;;;;;;;;;4861332;29;20050;-78
2023/08/22 08:38:07;;;;;;;11.43;4.82;;;;;;;;;;4861472;29;20049;-79
2023/08/22 08:40:42;;;;;;;15.60;5.32;;;;;;;;;;4861176;29;20056;-79
2023/08/22 08:43:21;;;;;;;12.05;5.18;;;;;;;;;;4861362;29;20057;-77
2023/08/22 08:45:56;;;;;;;11.85;5.65;;;;;;;;;;4861629;29;20060;-78
2023/08/22 08:48:28;;;;;;;9.43;4.70;;;;;;;;;;4861449;29;20033;-80
2023/08/22 08:51:04;;;;;;;12.65;5.10;;;;;;;;;;4861135;29;20056;-79
2023/08/22 08:53:37;;;;;;;11.60;5.07;;;;;;;;;;4861473;29;20500;-78
2023/08/22 08:56:11;;;;;;;11.05;4.95;;;;;;;;;;4859522;29;20055;-80
2023/08/22 08:58:45;;;;;;;9.80;5.28;;;;;;;;;;4861260;29;20050;-80
2023/08/22 09:01:18;;;;;;;10.60;5.32;;;;;;;;;;4860981;29;20493;-78
2023/08/22 09:03:50;;;;;;;11.65;5.60;;;;;;;;;;4861748;29;20045;-81
2023/08/22 09:06:23;;;;;;;10.95;5.32;;;;;;;;;;4859500;29;20074;-78
2023/08/22 09:09:09;;;;;;;12.77;5.40;;;;;;;;;;4861816;29;20050;-79
2023/08/22 09:11:50;;;;;;;10.60;5.07;;;;;;;;;;4861156;29;20050;-79
2023/08/22 09:14:21;;;;;;;11.13;5.13;;;;;;;;;;4862312;29;20057;-77
2023/08/22 09:16:52;;;;;;;14.77;5.68;;;;;;;;;;4862141;29;20159;-79
2023/08/22 09:19:24;;;;;;;10.70;5.18;;;;;;;;;;4861476;29;20053;-80
2023/08/22 09:22:05;;;;;;;12.40;5.32;;;;;;;;;;4861124;29;20069;-79
2023/08/22 09:24:36;;;;;;;9.93;4.68;;;;;;;;;;4861739;29;20054;-77
2023/08/22 09:27:10;;;;;;;13.98;5.32;;;;;;;;;;4862968;29;20057;-79
2023/08/22 09:29:43;;;;;;;11.23;5.35;;;;;;;;;;4861425;29;20061;-78
2023/08/22 09:32:13;;;;;;;15.85;5.90;;;;;;;;;;4860082;29;20520;-80
2023/08/22 09:34:54;;;;;;;13.93;5.05;;;;;;;;;;4862004;29;20057;-80
2023/08/22 09:37:36;;;;;;;14.02;5.35;;;;;;;;;;4861516;29;20049;-78
2023/08/22 09:40:10;;;;;;;13.63;5.82;;;;;;;;;;4862548;29;20116;-79
2023/08/22 09:42:44;;;;;;;14.88;6.05;;;;;;;;;;4861342;29;20056;-80
2023/08/22 09:45:19;;;;;;;11.52;4.95;;;;;;;;;;4860731;29;20044;-79
2023/08/22 09:48:01;;;;;;;12.00;5.15;;;;;;;;;;4858422;29;20057;-78
2023/08/22 09:50:37;;;;;;;14.93;4.95;;;;;;;;;;4863151;29;20049;-78
2023/08/22 09:53:09;;;;;;;11.45;5.10;;;;;;;;;;4864061;29;20041;-80
2023/08/22 09:55:43;;;;;;;10.95;5.38;;;;;;;;;;4863178;29;20053;-78
2023/08/22 09:58:21;;;;;;;15.75;6.13;;;;;;;;;;4864179;29;20524;-80
2023/08/22 10:00:59;;;;;;;12.20;5.50;;;;;;;;;;4866556;29;20136;-78
2023/08/22 10:03:30;;;;;;;10.90;4.90;;;;;;;;;;4882940;29;20472;-78
2023/08/22 10:06:04;;;;;;;26.33;8.68;;;;;;;;;;4883088;29;20057;-79
2023/08/22 10:08:37;;;;;;;12.65;6.18;;;;;;;;;;4880118;29;20059;-78
2023/08/22 10:11:11;;;;;;;21.42;8.93;;;;;;;;;;4870449;29;20041;-79
2023/08/22 10:13:43;;;;;;;19.40;8.45;;;;;;;;;;4864682;29;20057;-79
2023/08/22 10:16:15;;;;;;;19.73;9.15;;;;;;;;;;4881539;29;20064;-79
2023/08/22 10:18:47;;;;;;;15.45;8.13;;;;;;;;;;4881088;29;20052;-80
2023/08/22 10:21:23;;;;;;;15.10;7.10;;;;;;;;;;4880964;29;20049;-80
2023/08/22 10:23:56;;;;;;;11.82;5.88;;;;;;;;;;4881265;29;20516;-79
2023/08/22 10:26:50;;;;;;;14.98;6.40;;;;;;;;;;4879723;29;20449;-80
2023/08/22 10:29:45;;;;;;;14.82;6.03;;;;;;;;;;4872826;29;20054;-80
2023/08/22 10:32:22;;;;;;;19.95;6.80;;;;;;;;;;4875609;29;20504;-78
2023/08/22 10:34:55;;;;;;;14.68;6.32;;;;;;;;;;4877761;29;20060;-81
2023/08/22 10:37:30;;;;;;;13.00;6.50;;;;;;;;;;4879232;29;20048;-79
2023/08/22 10:40:06;;;;;;;13.30;6.50;;;;;;;;;;4880386;29;20401;-79
2023/08/22 10:43:03;;;;;;;14.70;6.80;;;;;;;;;;4880674;29;20049;-78
2023/08/22 10:45:50;;;;;;;21.05;7.53;;;;;;;;;;4880781;29;20053;-78
2023/08/22 10:48:22;;;;;;;15.50;6.97;;;;;;;;;;4880550;29;20056;-81
2023/08/22 10:51:08;;;;;;;17.92;7.75;;;;;;;;;;4880789;29;20045;-78
2023/08/22 10:53:46;;;;;;;13.57;6.60;;;;;;;;;;4880631;29;20097;-76
2023/08/22 10:56:25;;;;;;;12.50;5.95;;;;;;;;;;4863181;29;20416;-80
2023/08/22 10:59:00;;;;;;;15.95;6.55;;;;;;;;;;4865333;29;20492;-77
2023/08/22 11:01:33;;;;;;;15.25;7.03;;;;;;;;;;4877890;29;20045;-78
2023/08/22 11:04:08;;;;;;;15.10;7.10;;;;;;;;;;4880859;29;20485;-77
2023/08/22 11:06:40;;;;;;;15.27;7.28;;;;;;;;;;4880034;29;20053;-76
2023/08/22 11:09:12;;;;;;;16.42;6.72;;;;;;;;;;4879850;29;20046;-78
2023/08/22 11:11:44;;;;;;;14.50;7.00;;;;;;;;;;4879306;29;20041;-77
2023/08/22 11:14:18;;;;;;;20.52;7.93;;;;;;;;;;4869081;29;20053;-80
2023/08/22 11:16:50;;;;;;;18.88;7.72;;;;;;;;;;4880202;29;20049;-77
2023/08/22 11:19:22;;;;;;;17.63;7.95;;;;;;;;;;4887579;29;20045;-78
2023/08/22 11:21:55;;;;;;;15.57;8.02;;;;;;;;;;4890446;29;20049;-77
2023/08/22 11:24:34;;;;;;;17.88;8.52;;;;;;;;;;4888689;29;20052;-79
2023/08/22 11:27:05;;;;;;;16.77;8.48;;;;;;;;;;4900381;29;20049;-74
2023/08/22 11:29:50;;;;;;;17.77;8.30;;;;;;;;;;4900499;29;20052;-75
2023/08/22 11:32:27;;;;;;;17.83;7.97;;;;;;;;;;4898286;29;20041;-74
2023/08/22 11:35:05;;;;;;;15.93;8.95;;;;;;;;;;4880643;29;20041;-79
2023/08/22 11:37:37;;;;;;;18.15;9.60;;;;;;;;;;4879173;29;20060;-78
2023/08/22 11:40:16;;;;;;;26.48;12.57;;;;;;;;;;4878067;29;20045;-80
2023/08/22 11:42:51;;;;;;;18.83;9.27;;;;;;;;;;4879352;29;20071;-83
2023/08/22 11:45:24;;;;;;;18.58;9.07;;;;;;;;;;4869469;29;20060;-78
2023/08/22 11:47:55;;;;;;;19.50;8.98;;;;;;;;;;4844367;29;20050;-80
2023/08/22 11:50:30;;;;;;;14.05;7.38;;;;;;;;;;4860718;29;20056;-79
2023/08/22 11:53:13;;;;;;;15.52;7.75;;;;;;;;;;4861490;29;20053;-79
2023/08/22 11:55:49;;;;;;;18.65;7.93;;;;;;;;;;4874659;29;20409;-80
2023/08/22 11:58:21;;;;;;;14.65;7.15;;;;;;;;;;4877592;29;20050;-79
2023/08/22 12:00:55;;;;;;;15.30;6.90;;;;;;;;;;4861592;29;20044;-79
2023/08/22 12:03:42;;;;;;;14.98;7.95;;;;;;;;;;4844036;29;20054;-82
2023/08/22 12:06:15;;;;;;;16.30;7.05;;;;;;;;;;4860742;29;20433;-79
2023/08/22 12:08:59;;;;;;;12.85;6.35;;;;;;;;;;4861172;29;20481;-83
2023/08/22 12:11:30;;;;;;;11.65;6.32;;;;;;;;;;4878579;29;20053;-82
2023/08/22 12:14:01;;;;;;;11.30;6.28;;;;;;;;;;4878692;29;20049;-79
2023/08/22 12:16:33;;;;;;;10.95;6.05;;;;;;;;;;4879104;29;20060;-80
2023/08/22 12:19:12;;;;;;;12.75;6.30;;;;;;;;;;4878100;29;20089;-84
2023/08/22 12:21:43;;;;;;;11.88;6.35;;;;;;;;;;4873705;29;20058;-79
2023/08/22 12:24:14;;;;;;;10.93;6.10;;;;;;;;;;4859929;29;20061;-80
2023/08/22 12:26:49;;;;;;;13.00;6.38;;;;;;;;;;4861125;29;20049;-80
2023/08/22 12:29:20;;;;;;;15.18;6.45;;;;;;;;;;4859589;29;20056;-81
2023/08/22 12:31:50;;;;;;;13.73;6.70;;;;;;;;;;4860727;29;20057;-80
2023/08/22 12:34:22;;;;;;;12.32;5.93;;;;;;;;;;4859609;29;20049;-80
2023/08/22 12:36:55;;;;;;;14.02;6.40;;;;;;;;;;4859807;29;20577;-82
2023/08/22 12:39:26;;;;;;;11.30;6.20;;;;;;;;;;4860439;29;20068;-81
2023/08/22 12:41:57;;;;;;;15.35;6.95;;;;;;;;;;4861581;29;20489;-81
2023/08/22 12:44:31;;;;;;;11.27;6.30;;;;;;;;;;4861462;29;20057;-81
2023/08/22 12:47:05;;;;;;;10.18;6.20;;;;;;;;;;4861086;29;20054;-82
2023/08/22 12:50:03;;;;;;;13.02;6.32;;;;;;;;;;4862102;29;20049;-81
2023/08/22 12:52:35;;;;;;;11.63;6.35;;;;;;;;;;4862998;29;20046;-81
2023/08/22 12:55:07;;;;;;;13.02;7.07;;;;;;;;;;4861956;29;20046;-83
2023/08/22 12:57:41;;;;;;;;;;;;;;;;;;4861208;29;20068;-86
2023/08/22 13:00:12;;;;;;;11.82;6.10;;;;;;;;;;4860987;29;19924;-80
2023/08/22 13:02:46;;;;;;;11.23;5.75;;;;;;;;;;4861538;29;20056;-81
2023/08/22 13:05:22;;;;;;;11.30;6.43;;;;;;;;;;4861578;29;20057;-81
2023/08/22 13:07:52;;;;;;;;;;;;;;;;;;4861618;29;20049;-82
2023/08/22 13:10:47;;;;;;;15.20;6.50;;;;;;;;;;4861050;29;19935;-82
2023/08/22 13:13:21;;;;;;;11.02;6.03;;;;;;;;;;4872554;29;20389;-82
2023/08/22 13:15:52;;;;;;;10.35;6.57;;;;;;;;;;4880416;29;20086;-83
2023/08/22 13:18:28;;;;;;;11.50;6.55;;;;;;;;;;4879834;29;20072;-83
2023/08/22 13:21:20;;;;;;;11.85;5.97;;;;;;;;;;4880331;29;20417;-85
2023/08/22 13:23:51;;;;;;;13.35;6.30;;;;;;;;;;4852912;29;20402;-82
2023/08/22 13:26:22;;;;;;;16.85;6.72;;;;;;;;;;4883329;29;20037;-82
2023/08/22 13:28:55;;;;;;;15.40;7.07;;;;;;;;;;4881589;29;20060;-83
2023/08/22 13:31:28;;;;;;;11.60;6.47;;;;;;;;;;4883583;29;20057;-82
2023/08/22 13:34:00;;;;;;;11.27;6.55;;;;;;;;;;4881759;29;20061;-81
2023/08/22 13:36:32;;;;;;;15.23;6.95;;;;;;;;;;4884522;29;20473;-82
2023/08/22 13:39:05;;;;;;;16.65;6.75;;;;;;;;;;4883297;29;20053;-81
2023/08/22 13:41:35;;;;;;;11.65;6.57;;;;;;;;;;4867440;29;20049;-82
2023/08/22 13:44:08;;;;;;;10.60;6.60;;;;;;;;;;4867206;29;20072;-82
2023/08/22 13:46:40;;;;;;;13.07;7.35;;;;;;;;;;4883783;29;20045;-82
2023/08/22 13:49:14;;;;;;;11.93;6.40;;;;;;;;;;4882443;29;20053;-80
2023/08/22 13:51:44;;;;;;;12.65;6.75;;;;;;;;;;4865743;29;20061;-86
2023/08/22 13:54:16;;;;;;;12.27;6.15;;;;;;;;;;4859793;29;20072;-82
2023/08/22 13:57:19;;;;;;;11.00;5.97;;;;;;;;;;4874483;29;20057;-80
2023/08/22 14:00:12;;;;;;;12.82;6.93;;;;;;;;;;4866307;29;20049;-81
2023/08/22 14:03:00;;;;;;;13.75;6.90;;;;;;;;;;4881796;29;20056;-80
2023/08/22 14:05:32;;;;;;;11.45;6.35;;;;;;;;;;4881804;29;20049;-81
2023/08/22 14:08:05;;;;;;;10.32;6.53;;;;;;;;;;4881209;29;20052;-83
2023/08/22 14:10:37;;;;;;;13.25;7.20;;;;;;;;;;4865611;29;20061;-81
2023/08/22 14:13:09;;;;;;;12.85;6.80;;;;;;;;;;4883747;29;20045;-81
2023/08/22 14:15:40;;;;;;;10.10;6.43;;;;;;;;;;4882168;29;20053;-80
2023/08/22 14:18:12;;;;;;;11.85;6.80;;;;;;;;;;4882820;29;20053;-83
2023/08/22 14:20:45;;;;;;;;;;;;;;;;;;4882663;29;20056;-80
2023/08/22 14:23:17;;;;;;;13.15;7.10;;;;;;;;;;4883142;29;19923;-83
2023/08/22 14:25:47;;;;;;;13.93;6.90;;;;;;;;;;4881898;29;20045;-84
2023/08/22 14:28:19;;;;;;;11.70;7.00;;;;;;;;;;4882493;29;20497;-81
2023/08/22 14:31:00;;;;;;;13.40;6.78;;;;;;;;;;4880833;29;20068;-82
2023/08/22 14:33:31;;;;;;;11.63;7.28;;;;;;;;;;4882449;29;20074;-81
2023/08/22 14:36:06;;;;;;;12.77;7.18;;;;;;;;;;4879927;29;20132;-84
2023/08/22 14:38:36;;;;;;;13.77;7.30;;;;;;;;;;4880680;29;20060;-81
2023/08/22 14:41:31;;;;;;;14.90;6.78;;;;;;;;;;4882397;29;20048;-82
2023/08/22 14:44:05;;;;;;;10.95;7.20;;;;;;;;;;4882586;29;20083;-81
2023/08/22 14:46:35;;;;;;;10.63;6.68;;;;;;;;;;4882183;29;20492;-84
2023/08/22 14:49:15;;;;;;;14.48;7.57;;;;;;;;;;4882634;29;20117;-80
2023/08/22 14:51:48;;;;;;;12.38;7.43;;;;;;;;;;4865276;29;20056;-81
2023/08/22 14:54:20;;;;;;;11.10;6.82;;;;;;;;;;4880678;29;20382;-83
2023/08/22 14:56:52;;;;;;;16.25;7.72;;;;;;;;;;4881927;29;20052;-82
2023/08/22 14:59:25;;;;;;;12.55;7.85;;;;;;;;;;4879825;29;20068;-80
2023/08/22 15:01:56;;;;;;;14.38;8.23;;;;;;;;;;4881403;29;20057;-81
2023/08/22 15:04:32;;;;;;;14.80;7.93;;;;;;;;;;4879954;29;20051;-82
2023/08/22 15:07:03;;;;;;;;;;;;;;;;;;4881705;29;20396;-81
2023/08/22 15:09:32;;;;;;;12.07;7.20;;;;;;;;;;4881616;29;19930;-81
2023/08/22 15:12:04;;;;;;;14.70;7.40;;;;;;;;;;4881054;29;20041;-81
2023/08/22 15:14:36;;;;;;;12.18;7.80;;;;;;;;;;4881966;29;20413;-81